sensor_id;sensor_type;location;lat;lon;timestamp;temperature;humidity
67054;SHT31;53960;51.826;5.850;2023-07-02T00:00:55;18.45;80.03
67054;SHT31;53960;51.826;5.850;2023-07-02T00:03:20;18.45;80.28
67054;SHT31;53960;51.826;5.850;2023-07-02T00:05:47;18.46;79.99
67054;SHT31;53960;51.826;5.850;2023-07-02T00:08:15;18.48;79.65
67054;SHT31;53960;51.826;5.850;2023-07-02T00:10:40;18.42;79.95
67054;SHT31;53960;51.826;5.850;2023-07-02T00:13:06;18.46;79.96
67054;SHT31;53960;51.826;5.850;2023-07-02T00:15:31;18.43;79.66
67054;SHT31;53960;51.826;5.850;2023-07-02T00:17:56;18.46;79.57
67054;SHT31;53960;51.826;5.850;2023-07-02T00:20:22;18.43;79.53
67054;SHT31;53960;51.826;5.850;2023-07-02T00:22:49;18.45;79.33
67054;SHT31;53960;51.826;5.850;2023-07-02T00:25:14;18.43;79.68
67054;SHT31;53960;51.826;5.850;2023-07-02T00:27:40;18.42;79.75
67054;SHT31;53960;51.826;5.850;2023-07-02T00:30:08;18.35;79.73
67054;SHT31;53960;51.826;5.850;2023-07-02T00:32:33;18.35;79.75
67054;SHT31;53960;51.826;5.850;2023-07-02T00:34:58;18.38;79.32
67054;SHT31;53960;51.826;5.850;2023-07-02T00:37:24;18.41;79.24
67054;SHT31;53960;51.826;5.850;2023-07-02T00:39:50;18.36;79.24
67054;SHT31;53960;51.826;5.850;2023-07-02T00:42:15;18.45;79.03
67054;SHT31;53960;51.826;5.850;2023-07-02T00:44:41;18.42;78.77
67054;SHT31;53960;51.826;5.850;2023-07-02T00:47:11;18.35;79.20
67054;SHT31;53960;51.826;5.850;2023-07-02T00:49:37;18.38;78.98
67054;SHT31;53960;51.826;5.850;2023-07-02T00:52:04;18.39;79.37
67054;SHT31;53960;51.826;5.850;2023-07-02T00:54:30;18.36;79.30
67054;SHT31;53960;51.826;5.850;2023-07-02T00:56:56;18.38;79.43
67054;SHT31;53960;51.826;5.850;2023-07-02T00:59:22;18.38;79.68
67054;SHT31;53960;51.826;5.850;2023-07-02T01:01:47;18.35;75.93
67054;SHT31;53960;51.826;5.850;2023-07-02T01:04:19;18.22;73.01
67054;SHT31;53960;51.826;5.850;2023-07-02T01:06:44;18.01;72.89
67054;SHT31;53960;51.826;5.850;2023-07-02T01:09:10;17.88;73.99
67054;SHT31;53960;51.826;5.850;2023-07-02T01:11:40;17.50;74.06
67054;SHT31;53960;51.826;5.850;2023-07-02T01:14:09;17.54;74.90
67054;SHT31;53960;51.826;5.850;2023-07-02T01:16:36;17.46;75.49
67054;SHT31;53960;51.826;5.850;2023-07-02T01:19:05;17.26;76.84
67054;SHT31;53960;51.826;5.850;2023-07-02T01:21:33;17.18;78.16
67054;SHT31;53960;51.826;5.850;2023-07-02T01:24:00;17.19;78.24
67054;SHT31;53960;51.826;5.850;2023-07-02T01:26:29;17.11;78.41
67054;SHT31;53960;51.826;5.850;2023-07-02T01:28:54;17.05;79.41
67054;SHT31;53960;51.826;5.850;2023-07-02T01:31:20;17.02;80.28
67054;SHT31;53960;51.826;5.850;2023-07-02T01:33:51;17.03;80.08
67054;SHT31;53960;51.826;5.850;2023-07-02T01:36:16;16.96;80.46
67054;SHT31;53960;51.826;5.850;2023-07-02T01:38:42;17.02;80.99
67054;SHT31;53960;51.826;5.850;2023-07-02T01:41:07;16.92;81.41
67054;SHT31;53960;51.826;5.850;2023-07-02T01:43:32;16.88;82.40
67054;SHT31;53960;51.826;5.850;2023-07-02T01:45:58;16.98;82.85
67054;SHT31;53960;51.826;5.850;2023-07-02T01:48:24;16.91;82.65
67054;SHT31;53960;51.826;5.850;2023-07-02T01:50:50;16.95;82.07
67054;SHT31;53960;51.826;5.850;2023-07-02T01:53:15;16.95;82.15
67054;SHT31;53960;51.826;5.850;2023-07-02T01:55:40;16.92;81.93
67054;SHT31;53960;51.826;5.850;2023-07-02T01:58:06;16.89;82.36
67054;SHT31;53960;51.826;5.850;2023-07-02T02:00:32;16.82;82.94
67054;SHT31;53960;51.826;5.850;2023-07-02T02:02:57;16.82;82.46
67054;SHT31;53960;51.826;5.850;2023-07-02T02:05:22;16.76;83.02
67054;SHT31;53960;51.826;5.850;2023-07-02T02:07:48;16.78;83.26
67054;SHT31;53960;51.826;5.850;2023-07-02T02:10:13;16.57;83.76
67054;SHT31;53960;51.826;5.850;2023-07-02T02:12:39;16.55;83.89
67054;SHT31;53960;51.826;5.850;2023-07-02T02:15:05;16.55;84.08
67054;SHT31;53960;51.826;5.850;2023-07-02T02:17:31;16.51;83.42
67054;SHT31;53960;51.826;5.850;2023-07-02T02:19:57;16.48;83.46
67054;SHT31;53960;51.826;5.850;2023-07-02T02:22:22;16.50;83.98
67054;SHT31;53960;51.826;5.850;2023-07-02T02:24:47;16.48;83.81
67054;SHT31;53960;51.826;5.850;2023-07-02T02:27:13;16.43;83.84
67054;SHT31;53960;51.826;5.850;2023-07-02T02:29:38;16.43;84.19
67054;SHT31;53960;51.826;5.850;2023-07-02T02:32:04;16.40;83.68
67054;SHT31;53960;51.826;5.850;2023-07-02T02:34:29;16.36;83.61
67054;SHT31;53960;51.826;5.850;2023-07-02T02:36:54;16.24;83.75
67054;SHT31;53960;51.826;5.850;2023-07-02T02:39:20;16.26;83.86
67054;SHT31;53960;51.826;5.850;2023-07-02T02:41:45;16.27;83.17
67054;SHT31;53960;51.826;5.850;2023-07-02T02:44:11;16.27;83.93
67054;SHT31;53960;51.826;5.850;2023-07-02T02:46:36;16.28;83.90
67054;SHT31;53960;51.826;5.850;2023-07-02T02:49:02;16.36;83.59
67054;SHT31;53960;51.826;5.850;2023-07-02T02:51:27;16.38;83.67
67054;SHT31;53960;51.826;5.850;2023-07-02T02:53:52;16.40;82.89
67054;SHT31;53960;51.826;5.850;2023-07-02T02:56:17;16.24;83.71
67054;SHT31;53960;51.826;5.850;2023-07-02T02:58:43;16.20;83.90
67054;SHT31;53960;51.826;5.850;2023-07-02T03:01:09;16.18;83.69
67054;SHT31;53960;51.826;5.850;2023-07-02T03:03:39;16.20;84.29
67054;SHT31;53960;51.826;5.850;2023-07-02T03:06:05;16.23;84.11
67054;SHT31;53960;51.826;5.850;2023-07-02T03:08:31;16.27;84.07
67054;SHT31;53960;51.826;5.850;2023-07-02T03:10:57;16.26;84.07
67054;SHT31;53960;51.826;5.850;2023-07-02T03:13:22;16.24;84.28
67054;SHT31;53960;51.826;5.850;2023-07-02T03:15:47;16.24;83.86
67054;SHT31;53960;51.826;5.850;2023-07-02T03:18:13;16.17;84.53
67054;SHT31;53960;51.826;5.850;2023-07-02T03:20:38;16.16;84.32
67054;SHT31;53960;51.826;5.850;2023-07-02T03:23:03;16.07;84.51
67054;SHT31;53960;51.826;5.850;2023-07-02T03:25:28;16.05;83.94
67054;SHT31;53960;51.826;5.850;2023-07-02T03:27:54;16.02;84.94
67054;SHT31;53960;51.826;5.850;2023-07-02T03:30:19;16.03;84.69
67054;SHT31;53960;51.826;5.850;2023-07-02T03:32:45;16.02;84.03
67054;SHT31;53960;51.826;5.850;2023-07-02T03:35:10;16.16;83.56
67054;SHT31;53960;51.826;5.850;2023-07-02T03:37:35;16.24;83.35
67054;SHT31;53960;51.826;5.850;2023-07-02T03:40:01;16.18;84.55
67054;SHT31;53960;51.826;5.850;2023-07-02T03:42:26;16.21;83.65
67054;SHT31;53960;51.826;5.850;2023-07-02T03:44:51;16.28;83.27
67054;SHT31;53960;51.826;5.850;2023-07-02T03:47:17;16.31;83.65
67054;SHT31;53960;51.826;5.850;2023-07-02T03:49:44;16.37;84.04
67054;SHT31;53960;51.826;5.850;2023-07-02T03:52:09;16.34;83.32
67054;SHT31;53960;51.826;5.850;2023-07-02T03:54:35;16.30;83.25
67054;SHT31;53960;51.826;5.850;2023-07-02T03:57:00;16.36;83.47
67054;SHT31;53960;51.826;5.850;2023-07-02T03:59:25;16.34;82.96
67054;SHT31;53960;51.826;5.850;2023-07-02T04:01:51;16.33;82.30
67054;SHT31;53960;51.826;5.850;2023-07-02T04:04:16;16.38;82.67
67054;SHT31;53960;51.826;5.850;2023-07-02T04:06:41;16.38;82.07
67054;SHT31;53960;51.826;5.850;2023-07-02T04:09:07;16.31;81.72
67054;SHT31;53960;51.826;5.850;2023-07-02T04:11:32;16.33;80.72
67054;SHT31;53960;51.826;5.850;2023-07-02T04:13:57;16.38;80.39
67054;SHT31;53960;51.826;5.850;2023-07-02T04:16:23;16.38;81.53
67054;SHT31;53960;51.826;5.850;2023-07-02T04:18:48;16.38;80.71
67054;SHT31;53960;51.826;5.850;2023-07-02T04:21:13;16.43;80.66
67054;SHT31;53960;51.826;5.850;2023-07-02T04:23:39;16.40;80.72
67054;SHT31;53960;51.826;5.850;2023-07-02T04:26:04;16.41;81.69
67054;SHT31;53960;51.826;5.850;2023-07-02T04:28:29;16.47;80.70
67054;SHT31;53960;51.826;5.850;2023-07-02T04:30:55;16.48;80.33
67054;SHT31;53960;51.826;5.850;2023-07-02T04:33:20;16.50;81.28
67054;SHT31;53960;51.826;5.850;2023-07-02T04:35:45;16.54;79.47
67054;SHT31;53960;51.826;5.850;2023-07-02T04:38:11;16.54;78.58
67054;SHT31;53960;51.826;5.850;2023-07-02T04:40:37;16.55;77.98
67054;SHT31;53960;51.826;5.850;2023-07-02T04:43:03;16.71;77.01
67054;SHT31;53960;51.826;5.850;2023-07-02T04:45:29;16.60;77.69
67054;SHT31;53960;51.826;5.850;2023-07-02T04:47:57;16.60;77.43
67054;SHT31;53960;51.826;5.850;2023-07-02T04:50:22;16.61;77.36
67054;SHT31;53960;51.826;5.850;2023-07-02T04:52:48;16.60;77.15
67054;SHT31;53960;51.826;5.850;2023-07-02T04:55:13;16.58;78.06
67054;SHT31;53960;51.826;5.850;2023-07-02T04:57:39;16.55;77.60
67054;SHT31;53960;51.826;5.850;2023-07-02T05:00:05;16.57;77.76
67054;SHT31;53960;51.826;5.850;2023-07-02T05:02:31;16.58;77.13
67054;SHT31;53960;51.826;5.850;2023-07-02T05:04:56;16.61;77.74
67054;SHT31;53960;51.826;5.850;2023-07-02T05:07:22;16.65;76.11
67054;SHT31;53960;51.826;5.850;2023-07-02T05:09:47;16.72;76.16
67054;SHT31;53960;51.826;5.850;2023-07-02T05:12:14;16.71;77.00
67054;SHT31;53960;51.826;5.850;2023-07-02T05:14:40;16.75;76.76
67054;SHT31;53960;51.826;5.850;2023-07-02T05:17:05;16.81;76.37
67054;SHT31;53960;51.826;5.850;2023-07-02T05:19:30;16.84;76.34
67054;SHT31;53960;51.826;5.850;2023-07-02T05:21:56;16.92;75.99
67054;SHT31;53960;51.826;5.850;2023-07-02T05:24:21;16.96;75.79
67054;SHT31;53960;51.826;5.850;2023-07-02T05:26:46;17.09;75.97
67054;SHT31;53960;51.826;5.850;2023-07-02T05:29:12;17.13;76.33
67054;SHT31;53960;51.826;5.850;2023-07-02T05:31:38;17.13;76.49
67054;SHT31;53960;51.826;5.850;2023-07-02T05:34:04;17.18;76.72
67054;SHT31;53960;51.826;5.850;2023-07-02T05:36:29;17.22;76.54
67054;SHT31;53960;51.826;5.850;2023-07-02T05:38:54;17.27;76.48
67054;SHT31;53960;51.826;5.850;2023-07-02T05:41:20;17.37;75.43
67054;SHT31;53960;51.826;5.850;2023-07-02T05:43:46;17.36;74.45
67054;SHT31;53960;51.826;5.850;2023-07-02T05:46:11;17.42;74.91
67054;SHT31;53960;51.826;5.850;2023-07-02T05:48:39;17.44;73.98
67054;SHT31;53960;51.826;5.850;2023-07-02T05:51:05;17.37;75.28
67054;SHT31;53960;51.826;5.850;2023-07-02T05:53:30;17.44;75.86
67054;SHT31;53960;51.826;5.850;2023-07-02T05:55:55;17.46;74.36
67054;SHT31;53960;51.826;5.850;2023-07-02T05:58:21;17.51;72.96
67054;SHT31;53960;51.826;5.850;2023-07-02T06:00:46;17.54;72.97
67054;SHT31;53960;51.826;5.850;2023-07-02T06:03:15;17.59;72.12
67054;SHT31;53960;51.826;5.850;2023-07-02T06:05:46;17.63;72.48
67054;SHT31;53960;51.826;5.850;2023-07-02T06:08:11;17.73;72.26
67054;SHT31;53960;51.826;5.850;2023-07-02T06:10:36;17.77;72.09
67054;SHT31;53960;51.826;5.850;2023-07-02T06:13:02;17.77;71.47
67054;SHT31;53960;51.826;5.850;2023-07-02T06:15:27;17.84;71.64
67054;SHT31;53960;51.826;5.850;2023-07-02T06:17:52;17.87;70.52
67054;SHT31;53960;51.826;5.850;2023-07-02T06:20:18;17.88;70.58
67054;SHT31;53960;51.826;5.850;2023-07-02T06:22:43;17.88;70.55
67054;SHT31;53960;51.826;5.850;2023-07-02T06:25:09;17.93;70.28
67054;SHT31;53960;51.826;5.850;2023-07-02T06:27:35;17.94;71.22
67054;SHT31;53960;51.826;5.850;2023-07-02T06:30:00;18.01;70.02
67054;SHT31;53960;51.826;5.850;2023-07-02T06:32:26;18.04;69.98
67054;SHT31;53960;51.826;5.850;2023-07-02T06:34:51;18.08;70.11
67054;SHT31;53960;51.826;5.850;2023-07-02T06:37:16;18.12;70.13
67054;SHT31;53960;51.826;5.850;2023-07-02T06:39:42;18.16;69.17
67054;SHT31;53960;51.826;5.850;2023-07-02T06:42:07;18.25;69.99
67054;SHT31;53960;51.826;5.850;2023-07-02T06:44:32;18.25;69.17
67054;SHT31;53960;51.826;5.850;2023-07-02T06:46:58;18.38;68.72
67054;SHT31;53960;51.826;5.850;2023-07-02T06:49:23;18.49;67.27
67054;SHT31;53960;51.826;5.850;2023-07-02T06:51:49;18.41;66.66
67054;SHT31;53960;51.826;5.850;2023-07-02T06:54:14;18.48;66.94
67054;SHT31;53960;51.826;5.850;2023-07-02T06:56:39;18.51;66.41
67054;SHT31;53960;51.826;5.850;2023-07-02T06:59:05;18.45;66.16
67054;SHT31;53960;51.826;5.850;2023-07-02T07:01:30;18.45;66.54
67054;SHT31;53960;51.826;5.850;2023-07-02T07:03:55;18.48;66.88
67054;SHT31;53960;51.826;5.850;2023-07-02T07:06:21;18.57;66.26
67054;SHT31;53960;51.826;5.850;2023-07-02T07:08:46;18.60;66.27
67054;SHT31;53960;51.826;5.850;2023-07-02T07:11:11;18.70;65.85
67054;SHT31;53960;51.826;5.850;2023-07-02T07:13:37;18.64;65.64
67054;SHT31;53960;51.826;5.850;2023-07-02T07:16:02;18.76;66.24
67054;SHT31;53960;51.826;5.850;2023-07-02T07:18:28;18.83;65.59
67054;SHT31;53960;51.826;5.850;2023-07-02T07:20:53;18.89;65.97
67054;SHT31;53960;51.826;5.850;2023-07-02T07:23:18;18.84;64.49
67054;SHT31;53960;51.826;5.850;2023-07-02T07:25:44;18.86;63.92
67054;SHT31;53960;51.826;5.850;2023-07-02T07:28:10;18.90;64.20
67054;SHT31;53960;51.826;5.850;2023-07-02T07:30:40;18.94;64.06
67054;SHT31;53960;51.826;5.850;2023-07-02T07:33:05;19.03;64.39
67054;SHT31;53960;51.826;5.850;2023-07-02T07:35:31;19.00;64.67
67054;SHT31;53960;51.826;5.850;2023-07-02T07:37:56;19.03;64.76
67054;SHT31;53960;51.826;5.850;2023-07-02T07:40:21;19.14;63.43
67054;SHT31;53960;51.826;5.850;2023-07-02T07:42:47;19.20;63.45
67054;SHT31;53960;51.826;5.850;2023-07-02T07:45:12;19.21;63.61
67054;SHT31;53960;51.826;5.850;2023-07-02T07:47:38;19.15;64.32
67054;SHT31;53960;51.826;5.850;2023-07-02T07:50:04;19.08;63.18
67054;SHT31;53960;51.826;5.850;2023-07-02T07:52:38;18.97;63.69
67054;SHT31;53960;51.826;5.850;2023-07-02T07:55:04;18.82;63.82
67054;SHT31;53960;51.826;5.850;2023-07-02T07:57:30;18.66;64.54
67054;SHT31;53960;51.826;5.850;2023-07-02T07:59:55;18.48;65.47
67054;SHT31;53960;51.826;5.850;2023-07-02T08:02:20;18.42;65.75
67054;SHT31;53960;51.826;5.850;2023-07-02T08:04:48;18.45;66.00
67054;SHT31;53960;51.826;5.850;2023-07-02T08:07:13;18.55;65.79
67054;SHT31;53960;51.826;5.850;2023-07-02T08:09:39;18.52;65.76
67054;SHT31;53960;51.826;5.850;2023-07-02T08:12:04;18.63;65.55
67054;SHT31;53960;51.826;5.850;2023-07-02T08:14:30;18.64;65.82
67054;SHT31;53960;51.826;5.850;2023-07-02T08:16:55;18.73;66.01
67054;SHT31;53960;51.826;5.850;2023-07-02T08:19:21;18.82;66.48
67054;SHT31;53960;51.826;5.850;2023-07-02T08:21:47;18.80;66.18
67054;SHT31;53960;51.826;5.850;2023-07-02T08:24:12;18.84;66.43
67054;SHT31;53960;51.826;5.850;2023-07-02T08:26:38;18.82;66.41
67054;SHT31;53960;51.826;5.850;2023-07-02T08:29:03;19.03;66.23
67054;SHT31;53960;51.826;5.850;2023-07-02T08:31:29;19.06;66.34
67054;SHT31;53960;51.826;5.850;2023-07-02T08:33:54;19.21;64.31
67054;SHT31;53960;51.826;5.850;2023-07-02T08:36:20;19.14;62.87
67054;SHT31;53960;51.826;5.850;2023-07-02T08:38:45;19.15;62.80
67054;SHT31;53960;51.826;5.850;2023-07-02T08:41:11;19.10;61.62
67054;SHT31;53960;51.826;5.850;2023-07-02T08:43:37;18.97;58.82
67054;SHT31;53960;51.826;5.850;2023-07-02T08:46:03;18.90;58.36
67054;SHT31;53960;51.826;5.850;2023-07-02T08:48:29;18.77;58.05
67054;SHT31;53960;51.826;5.850;2023-07-02T08:50:57;18.84;58.51
67054;SHT31;53960;51.826;5.850;2023-07-02T08:53:23;18.76;58.20
67054;SHT31;53960;51.826;5.850;2023-07-02T08:55:55;18.72;59.42
67054;SHT31;53960;51.826;5.850;2023-07-02T08:58:21;18.69;59.46
67054;SHT31;53960;51.826;5.850;2023-07-02T09:01:09;18.67;59.63
67054;SHT31;53960;51.826;5.850;2023-07-02T09:03:35;18.76;60.00
67054;SHT31;53960;51.826;5.850;2023-07-02T09:06:03;18.67;60.22
67054;SHT31;53960;51.826;5.850;2023-07-02T09:08:28;18.70;60.75
67054;SHT31;53960;51.826;5.850;2023-07-02T09:11:04;18.76;60.24
67054;SHT31;53960;51.826;5.850;2023-07-02T09:13:30;18.74;60.33
67054;SHT31;53960;51.826;5.850;2023-07-02T09:15:55;18.79;60.37
67054;SHT31;53960;51.826;5.850;2023-07-02T09:18:22;18.69;60.38
67054;SHT31;53960;51.826;5.850;2023-07-02T09:20:50;18.74;60.55
67054;SHT31;53960;51.826;5.850;2023-07-02T09:23:16;18.83;61.29
67054;SHT31;53960;51.826;5.850;2023-07-02T09:25:41;19.17;61.24
67054;SHT31;53960;51.826;5.850;2023-07-02T09:28:14;19.35;60.44
67054;SHT31;53960;51.826;5.850;2023-07-02T09:30:55;19.52;60.66
67054;SHT31;53960;51.826;5.850;2023-07-02T09:33:24;19.54;59.86
67054;SHT31;53960;51.826;5.850;2023-07-02T09:35:50;19.54;61.19
67054;SHT31;53960;51.826;5.850;2023-07-02T09:38:18;19.72;58.12
67054;SHT31;53960;51.826;5.850;2023-07-02T09:40:51;19.80;57.38
67054;SHT31;53960;51.826;5.850;2023-07-02T09:43:17;19.82;58.16
67054;SHT31;53960;51.826;5.850;2023-07-02T09:45:44;19.94;58.26
67054;SHT31;53960;51.826;5.850;2023-07-02T09:48:13;20.03;57.18
67054;SHT31;53960;51.826;5.850;2023-07-02T09:50:40;20.10;57.70
67054;SHT31;53960;51.826;5.850;2023-07-02T09:53:06;20.05;57.74
67054;SHT31;53960;51.826;5.850;2023-07-02T09:55:32;19.83;56.14
67054;SHT31;53960;51.826;5.850;2023-07-02T09:57:57;19.82;55.37
67054;SHT31;53960;51.826;5.850;2023-07-02T10:00:23;19.90;55.67
67054;SHT31;53960;51.826;5.850;2023-07-02T10:02:49;20.03;55.71
67054;SHT31;53960;51.826;5.850;2023-07-02T10:05:31;20.03;55.34
67054;SHT31;53960;51.826;5.850;2023-07-02T10:07:59;20.19;55.96
67054;SHT31;53960;51.826;5.850;2023-07-02T10:10:36;20.30;54.43
67054;SHT31;53960;51.826;5.850;2023-07-02T10:13:01;20.13;54.52
67054;SHT31;53960;51.826;5.850;2023-07-02T10:15:27;19.99;54.92
67054;SHT31;53960;51.826;5.850;2023-07-02T10:17:57;20.01;53.51
67054;SHT31;53960;51.826;5.850;2023-07-02T10:22:58;19.94;54.49
67054;SHT31;53960;51.826;5.850;2023-07-02T10:25:29;20.27;54.38
67054;SHT31;53960;51.826;5.850;2023-07-02T10:27:55;20.40;54.03
67054;SHT31;53960;51.826;5.850;2023-07-02T10:30:37;20.44;53.59
67054;SHT31;53960;51.826;5.850;2023-07-02T10:33:13;20.31;53.11
67054;SHT31;53960;51.826;5.850;2023-07-02T10:35:40;20.41;53.34
67054;SHT31;53960;51.826;5.850;2023-07-02T10:38:25;20.60;52.04
67054;SHT31;53960;51.826;5.850;2023-07-02T10:43:28;20.63;52.17
67054;SHT31;53960;51.826;5.850;2023-07-02T10:45:54;20.55;52.47
67054;SHT31;53960;51.826;5.850;2023-07-02T10:48:19;20.92;52.08
67054;SHT31;53960;51.826;5.850;2023-07-02T10:50:44;20.96;52.71
67054;SHT31;53960;51.826;5.850;2023-07-02T10:53:20;21.00;50.97
67054;SHT31;53960;51.826;5.850;2023-07-02T10:55:46;20.84;51.70
67054;SHT31;53960;51.826;5.850;2023-07-02T10:58:12;20.95;52.19
67054;SHT31;53960;51.826;5.850;2023-07-02T11:00:44;21.03;50.26
67054;SHT31;53960;51.826;5.850;2023-07-02T11:03:26;21.10;49.27
67054;SHT31;53960;51.826;5.850;2023-07-02T11:05:52;21.10;49.88
67054;SHT31;53960;51.826;5.850;2023-07-02T11:08:18;21.03;50.43
67054;SHT31;53960;51.826;5.850;2023-07-02T11:10:44;20.96;49.71
67054;SHT31;53960;51.826;5.850;2023-07-02T11:13:14;20.75;48.56
67054;SHT31;53960;51.826;5.850;2023-07-02T11:15:40;20.81;48.33
67054;SHT31;53960;51.826;5.850;2023-07-02T11:18:11;20.82;48.55
67054;SHT31;53960;51.826;5.850;2023-07-02T11:20:38;21.20;49.87
67054;SHT31;53960;51.826;5.850;2023-07-02T11:23:04;21.30;49.74
67054;SHT31;53960;51.826;5.850;2023-07-02T11:25:30;21.28;48.84
67054;SHT31;53960;51.826;5.850;2023-07-02T11:28:05;21.16;48.62
67054;SHT31;53960;51.826;5.850;2023-07-02T11:30:30;21.23;50.05
67054;SHT31;53960;51.826;5.850;2023-07-02T11:32:56;21.29;48.09
67054;SHT31;53960;51.826;5.850;2023-07-02T11:35:22;21.30;48.34
67054;SHT31;53960;51.826;5.850;2023-07-02T11:37:58;21.43;49.26
67054;SHT31;53960;51.826;5.850;2023-07-02T11:40:24;21.32;48.84
67054;SHT31;53960;51.826;5.850;2023-07-02T11:42:49;21.51;48.88
67054;SHT31;53960;51.826;5.850;2023-07-02T11:45:14;21.63;47.66
67054;SHT31;53960;51.826;5.850;2023-07-02T11:47:40;21.71;48.80
67054;SHT31;53960;51.826;5.850;2023-07-02T11:50:06;21.47;47.96
67054;SHT31;53960;51.826;5.850;2023-07-02T11:52:32;21.54;48.69
67054;SHT31;53960;51.826;5.850;2023-07-02T11:54:57;21.58;48.66
67054;SHT31;53960;51.826;5.850;2023-07-02T11:57:22;21.67;48.65
67054;SHT31;53960;51.826;5.850;2023-07-02T11:59:48;21.54;47.11
67054;SHT31;53960;51.826;5.850;2023-07-02T12:02:14;21.33;46.89
67054;SHT31;53960;51.826;5.850;2023-07-02T12:04:40;21.63;47.35
67054;SHT31;53960;51.826;5.850;2023-07-02T12:07:05;21.71;46.31
67054;SHT31;53960;51.826;5.850;2023-07-02T12:09:30;21.94;46.30
67054;SHT31;53960;51.826;5.850;2023-07-02T12:11:56;21.70;46.67
67054;SHT31;53960;51.826;5.850;2023-07-02T12:14:21;21.58;46.19
67054;SHT31;53960;51.826;5.850;2023-07-02T12:16:46;21.28;46.08
67054;SHT31;53960;51.826;5.850;2023-07-02T12:19:12;21.49;45.63
67054;SHT31;53960;51.826;5.850;2023-07-02T12:21:37;21.45;45.65
67054;SHT31;53960;51.826;5.850;2023-07-02T12:24:02;21.66;45.42
67054;SHT31;53960;51.826;5.850;2023-07-02T12:26:28;21.60;45.60
67054;SHT31;53960;51.826;5.850;2023-07-02T12:28:54;21.68;45.65
67054;SHT31;53960;51.826;5.850;2023-07-02T12:31:19;21.73;45.72
67054;SHT31;53960;51.826;5.850;2023-07-02T12:33:45;21.33;46.03
67054;SHT31;53960;51.826;5.850;2023-07-02T12:36:10;21.49;45.95
67054;SHT31;53960;51.826;5.850;2023-07-02T12:38:35;21.32;47.04
67054;SHT31;53960;51.826;5.850;2023-07-02T12:41:01;21.67;46.11
67054;SHT31;53960;51.826;5.850;2023-07-02T12:43:27;21.53;46.53
67054;SHT31;53960;51.826;5.850;2023-07-02T12:45:52;21.81;46.22
67054;SHT31;53960;51.826;5.850;2023-07-02T12:48:18;22.09;45.20
67054;SHT31;53960;51.826;5.850;2023-07-02T12:50:57;21.64;45.47
67054;SHT31;53960;51.826;5.850;2023-07-02T12:53:23;21.90;45.55
67054;SHT31;53960;51.826;5.850;2023-07-02T12:55:49;21.93;46.53
67054;SHT31;53960;51.826;5.850;2023-07-02T12:58:14;21.93;45.89
67054;SHT31;53960;51.826;5.850;2023-07-02T13:00:40;21.88;46.24
67054;SHT31;53960;51.826;5.850;2023-07-02T13:03:10;21.86;45.87
67054;SHT31;53960;51.826;5.850;2023-07-02T13:05:36;21.71;45.97
67054;SHT31;53960;51.826;5.850;2023-07-02T13:08:01;21.70;46.44
67054;SHT31;53960;51.826;5.850;2023-07-02T13:10:28;21.94;46.09
67054;SHT31;53960;51.826;5.850;2023-07-02T13:12:54;22.15;46.49
67054;SHT31;53960;51.826;5.850;2023-07-02T13:15:19;22.21;45.70
67054;SHT31;53960;51.826;5.850;2023-07-02T13:17:44;22.34;45.48
67054;SHT31;53960;51.826;5.850;2023-07-02T13:20:10;22.51;46.10
67054;SHT31;53960;51.826;5.850;2023-07-02T13:22:35;22.41;45.91
67054;SHT31;53960;51.826;5.850;2023-07-02T13:25:02;22.44;45.28
67054;SHT31;53960;51.826;5.850;2023-07-02T13:27:28;22.69;44.37
67054;SHT31;53960;51.826;5.850;2023-07-02T13:29:53;22.82;45.76
67054;SHT31;53960;51.826;5.850;2023-07-02T13:32:18;23.03;46.62
67054;SHT31;53960;51.826;5.850;2023-07-02T13:34:44;23.11;44.30
67054;SHT31;53960;51.826;5.850;2023-07-02T13:37:09;23.25;44.24
67054;SHT31;53960;51.826;5.850;2023-07-02T13:39:34;23.15;44.41
67054;SHT31;53960;51.826;5.850;2023-07-02T13:42:00;22.99;44.56
67054;SHT31;53960;51.826;5.850;2023-07-02T13:44:25;23.15;45.38
67054;SHT31;53960;51.826;5.850;2023-07-02T13:46:51;23.40;45.23
67054;SHT31;53960;51.826;5.850;2023-07-02T13:49:16;23.23;45.34
67054;SHT31;53960;51.826;5.850;2023-07-02T13:51:41;22.56;46.11
67054;SHT31;53960;51.826;5.850;2023-07-02T13:54:09;22.32;46.19
67054;SHT31;53960;51.826;5.850;2023-07-02T13:56:34;22.15;46.73
67054;SHT31;53960;51.826;5.850;2023-07-02T13:59:00;21.88;46.63
67054;SHT31;53960;51.826;5.850;2023-07-02T14:01:26;22.12;47.21
67054;SHT31;53960;51.826;5.850;2023-07-02T14:03:52;22.04;47.84
67054;SHT31;53960;51.826;5.850;2023-07-02T14:06:19;22.02;47.92
67054;SHT31;53960;51.826;5.850;2023-07-02T14:08:45;22.14;48.01
67054;SHT31;53960;51.826;5.850;2023-07-02T14:11:10;22.46;48.59
67054;SHT31;53960;51.826;5.850;2023-07-02T14:13:35;22.21;48.04
67054;SHT31;53960;51.826;5.850;2023-07-02T14:16:01;22.29;48.40
67054;SHT31;53960;51.826;5.850;2023-07-02T14:18:26;22.11;48.29
67054;SHT31;53960;51.826;5.850;2023-07-02T14:20:52;22.02;49.37
67054;SHT31;53960;51.826;5.850;2023-07-02T14:23:17;22.34;48.78
67054;SHT31;53960;51.826;5.850;2023-07-02T14:25:43;22.53;48.06
67054;SHT31;53960;51.826;5.850;2023-07-02T14:28:09;22.84;47.27
67054;SHT31;53960;51.826;5.850;2023-07-02T14:30:35;22.73;47.23
67054;SHT31;53960;51.826;5.850;2023-07-02T14:33:00;22.62;47.00
67054;SHT31;53960;51.826;5.850;2023-07-02T14:35:25;22.42;46.19
67054;SHT31;53960;51.826;5.850;2023-07-02T14:37:53;22.39;45.04
67054;SHT31;53960;51.826;5.850;2023-07-02T14:40:19;22.49;46.05
67054;SHT31;53960;51.826;5.850;2023-07-02T14:42:45;22.44;45.59
67054;SHT31;53960;51.826;5.850;2023-07-02T14:45:10;22.63;45.93
67054;SHT31;53960;51.826;5.850;2023-07-02T14:47:35;22.82;45.66
67054;SHT31;53960;51.826;5.850;2023-07-02T14:50:01;22.84;46.02
67054;SHT31;53960;51.826;5.850;2023-07-02T14:52:27;22.99;45.98
67054;SHT31;53960;51.826;5.850;2023-07-02T14:54:52;22.96;44.63
67054;SHT31;53960;51.826;5.850;2023-07-02T14:57:18;22.93;45.12
67054;SHT31;53960;51.826;5.850;2023-07-02T14:59:44;22.70;44.25
67054;SHT31;53960;51.826;5.850;2023-07-02T15:02:11;22.66;44.34
67054;SHT31;53960;51.826;5.850;2023-07-02T15:04:38;22.94;43.76
67054;SHT31;53960;51.826;5.850;2023-07-02T15:07:03;23.14;43.95
67054;SHT31;53960;51.826;5.850;2023-07-02T15:09:29;23.00;44.40
67054;SHT31;53960;51.826;5.850;2023-07-02T15:11:54;23.00;44.53
67054;SHT31;53960;51.826;5.850;2023-07-02T15:14:20;23.03;45.53
67054;SHT31;53960;51.826;5.850;2023-07-02T15:16:45;22.96;45.20
67054;SHT31;53960;51.826;5.850;2023-07-02T15:19:10;22.96;45.26
67054;SHT31;53960;51.826;5.850;2023-07-02T15:21:38;22.93;44.11
67054;SHT31;53960;51.826;5.850;2023-07-02T15:24:03;23.02;44.12
67054;SHT31;53960;51.826;5.850;2023-07-02T15:26:29;23.08;43.96
67054;SHT31;53960;51.826;5.850;2023-07-02T15:28:54;22.90;44.96